Time;durP1;ratioP1;P1;durP2;ratioP2;P2;SDS_P1;SDS_P2;PMS_P1;PMS_P2;Temp;Humidity;BMP_temperature;BMP_pressure;BME280_temperature;BME280_humidity;BME280_pressure;Samples;Min_cycle;Max_cycle;Signal;HPM_P1;HPM_P2
2021/05/08 00:00:17;;;;;;;0.10;0.10;;;11.70;99.90;;;;;;6212062;23;20088;-83
2021/05/08 00:02:45;;;;;;;0.10;0.10;;;11.70;99.90;;;;;;6212708;23;20004;-82
2021/05/08 00:05:13;;;;;;;0.10;0.10;;;11.70;99.90;;;;;;6185501;23;20029;-81
2021/05/08 00:07:40;;;;;;;0.10;0.10;;;11.60;99.90;;;;;;6212621;23;19997;-83
2021/05/08 00:10:12;;;;;;;0.10;0.10;;;11.70;99.90;;;;;;6212227;23;20009;-83
2021/05/08 00:12:38;;;;;;;0.00;0.00;;;11.70;99.90;;;;;;6186002;23;20007;-82
2021/05/08 00:15:04;;;;;;;0.10;0.10;;;11.60;99.90;;;;;;6211717;23;20083;-82
2021/05/08 00:17:30;;;;;;;0.10;0.10;;;11.70;99.90;;;;;;6212078;23;19997;-82
2021/05/08 00:19:56;;;;;;;0.10;0.10;;;11.60;99.90;;;;;;6213621;23;20001;-84
2021/05/08 00:22:21;;;;;;;0.10;0.10;;;11.70;99.90;;;;;;6213566;23;20311;-85
2021/05/08 00:24:47;;;;;;;0.10;0.10;;;11.70;99.90;;;;;;6213300;23;20083;-83
2021/05/08 00:27:13;;;;;;;0.10;0.10;;;11.70;99.90;;;;;;6212947;23;20402;-84
2021/05/08 00:29:39;;;;;;;0.10;0.10;;;11.70;99.90;;;;;;6212583;23;20339;-83
2021/05/08 00:32:04;;;;;;;0.10;0.10;;;11.70;99.90;;;;;;6213116;23;20024;-84
2021/05/08 00:34:30;;;;;;;0.10;0.10;;;11.80;99.90;;;;;;6213882;23;20364;-81
2021/05/08 00:36:56;;;;;;;0.10;0.10;;;11.70;99.90;;;;;;6214395;23;20088;-84
2021/05/08 00:39:21;;;;;;;0.10;0.10;;;11.70;99.90;;;;;;6214892;23;20413;-88
2021/05/08 00:41:48;;;;;;;0.05;0.05;;;11.70;99.90;;;;;;6215185;23;20000;-87
2021/05/08 00:44:15;;;;;;;0.10;0.10;;;11.60;99.90;;;;;;6215687;23;20007;-87
2021/05/08 00:46:41;;;;;;;0.10;0.10;;;11.60;99.90;;;;;;6188833;23;20428;-87
2021/05/08 00:49:07;;;;;;;0.10;0.10;;;11.60;99.90;;;;;;6214897;23;20012;-86
2021/05/08 00:51:33;;;;;;;0.10;0.10;;;11.60;99.90;;;;;;6188041;23;20058;-87
2021/05/08 00:54:06;;;;;;;0.10;0.10;;;11.60;99.90;;;;;;6213448;23;20000;-86
2021/05/08 00:56:33;;;;;;;0.10;0.10;;;11.60;99.90;;;;;;6180869;23;20011;-88
2021/05/08 00:58:59;;;;;;;0.10;0.10;;;11.60;99.90;;;;;;6210956;23;20001;-90
2021/05/08 01:01:25;;;;;;;0.10;0.10;;;11.60;99.90;;;;;;6211693;23;19992;-85
2021/05/08 01:03:51;;;;;;;0.10;0.10;;;11.70;99.90;;;;;;6211882;23;20063;-83
2021/05/08 01:06:17;;;;;;;0.10;0.10;;;11.60;99.90;;;;;;6211913;23;20391;-82
2021/05/08 01:08:43;;;;;;;0.10;0.10;;;11.70;99.90;;;;;;6212803;23;20012;-83
2021/05/08 01:11:09;;;;;;;0.10;0.10;;;11.60;99.90;;;;;;6212956;23;20440;-85
2021/05/08 01:13:35;;;;;;;0.10;0.10;;;11.60;99.90;;;;;;6214082;23;20051;-85
2021/05/08 01:16:01;;;;;;;0.10;0.10;;;11.70;99.90;;;;;;6211352;23;19997;-84
2021/05/08 01:18:29;;;;;;;0.10;0.10;;;11.70;99.90;;;;;;6214169;23;20071;-85
2021/05/08 01:20:55;;;;;;;0.10;0.10;;;11.70;99.90;;;;;;6213570;23;20360;-83
2021/05/08 01:23:20;;;;;;;0.10;0.10;;;11.60;99.90;;;;;;6213959;23;20000;-84
2021/05/08 01:25:46;;;;;;;0.10;0.10;;;11.60;99.90;;;;;;6214008;23;19996;-83
2021/05/08 01:28:12;;;;;;;0.10;0.10;;;11.60;99.90;;;;;;6213227;23;20013;-81
2021/05/08 01:30:38;;;;;;;0.10;0.10;;;11.60;99.90;;;;;;6212828;23;20439;-81
2021/05/08 01:33:05;;;;;;;0.10;0.10;;;11.60;99.90;;;;;;6213430;23;20001;-83
2021/05/08 01:35:32;;;;;;;0.10;0.10;;;11.60;99.90;;;;;;6213424;23;20099;-82
2021/05/08 01:37:59;;;;;;;0.10;0.10;;;11.60;99.90;;;;;;6213626;23;20009;-84
2021/05/08 01:40:25;;;;;;;;;;;11.50;99.90;;;;;;6210515;23;20135;-84
2021/05/08 01:42:52;;;;;;;0.10;0.10;;;11.50;99.90;;;;;;6191849;23;20311;-82
2021/05/08 01:45:20;;;;;;;0.10;0.10;;;11.50;99.90;;;;;;6211189;23;20080;-83
2021/05/08 01:47:46;;;;;;;0.10;0.10;;;11.50;99.90;;;;;;6211400;23;20016;-83
2021/05/08 01:50:15;;;;;;;0.10;0.10;;;11.40;99.90;;;;;;6209119;23;20176;-83
2021/05/08 01:52:41;;;;;;;0.10;0.10;;;11.40;99.90;;;;;;6209815;23;20004;-83
2021/05/08 01:55:14;;;;;;;0.10;0.10;;;11.40;99.90;;;;;;6211578;23;20001;-84
2021/05/08 01:57:42;;;;;;;0.10;0.10;;;11.40;99.90;;;;;;6213582;23;20231;-84
2021/05/08 02:00:15;;;;;;;0.10;0.10;;;11.40;99.90;;;;;;6212824;23;20004;-83
2021/05/08 02:02:41;;;;;;;0.10;0.10;;;11.40;99.90;;;;;;6213864;23;20070;-84
2021/05/08 02:05:08;;;;;;;0.10;0.10;;;11.40;99.90;;;;;;6213721;23;20376;-85
2021/05/08 02:07:34;;;;;;;0.10;0.10;;;11.40;99.90;;;;;;6211957;23;20005;-82
2021/05/08 02:10:00;;;;;;;0.10;0.10;;;11.40;99.90;;;;;;6212527;23;20024;-84
2021/05/08 02:12:33;;;;;;;0.10;0.10;;;11.50;99.90;;;;;;6213389;23;19997;-85
2021/05/08 02:14:59;;;;;;;0.10;0.10;;;11.50;99.90;;;;;;6186840;23;20059;-82
2021/05/08 02:17:24;;;;;;;0.10;0.10;;;11.50;99.90;;;;;;6213543;23;20001;-86
2021/05/08 02:19:50;;;;;;;0.10;0.10;;;11.50;99.90;;;;;;6186072;23;20333;-83
2021/05/08 02:22:19;;;;;;;0.10;0.10;;;11.50;99.90;;;;;;6211762;23;20016;-84
2021/05/08 02:24:45;;;;;;;0.10;0.10;;;11.40;99.90;;;;;;6211490;23;20008;-83
2021/05/08 02:27:11;;;;;;;0.10;0.10;;;11.40;99.90;;;;;;6213068;23;20007;-81
2021/05/08 02:29:37;;;;;;;0.10;0.10;;;11.40;99.90;;;;;;6212737;23;20017;-83
2021/05/08 02:32:04;;;;;;;0.10;0.10;;;11.40;99.90;;;;;;6211553;23;20004;-82
2021/05/08 02:34:30;;;;;;;0.10;0.10;;;11.40;99.90;;;;;;6186431;23;20386;-82
2021/05/08 02:36:56;;;;;;;0.10;0.10;;;11.40;99.90;;;;;;6185244;23;20047;-84
2021/05/08 02:39:21;;;;;;;0.10;0.10;;;11.40;99.90;;;;;;6212549;23;20004;-84
2021/05/08 02:41:47;;;;;;;0.10;0.10;;;11.40;99.90;;;;;;6212954;23;20086;-82
2021/05/08 02:44:13;;;;;;;0.03;0.03;;;11.40;99.90;;;;;;6213214;23;20058;-83
2021/05/08 02:46:38;;;;;;;0.10;0.10;;;11.40;99.90;;;;;;6212990;23;20028;-84
2021/05/08 02:49:04;;;;;;;0.10;0.10;;;11.40;99.90;;;;;;6212782;23;20052;-84
2021/05/08 02:51:30;;;;;;;0.10;0.10;;;11.50;99.90;;;;;;6212931;23;20001;-82
2021/05/08 02:53:55;;;;;;;0.10;0.10;;;11.50;99.90;;;;;;6213031;23;20008;-83
2021/05/08 02:56:21;;;;;;;0.10;0.10;;;11.50;99.90;;;;;;6213721;23;20001;-82
2021/05/08 02:58:47;;;;;;;0.10;0.10;;;11.50;99.90;;;;;;6213576;23;20046;-83
2021/05/08 03:01:12;;;;;;;0.00;0.00;;;11.50;99.90;;;;;;6211966;23;20001;-81
2021/05/08 03:03:38;;;;;;;0.10;0.10;;;11.50;99.90;;;;;;6213389;23;20409;-83
2021/05/08 03:06:05;;;;;;;0.10;0.10;;;11.50;99.90;;;;;;6214024;23;19997;-84
2021/05/08 03:08:30;;;;;;;0.10;0.10;;;11.50;99.90;;;;;;6211886;23;20043;-85
2021/05/08 03:10:56;;;;;;;0.10;0.10;;;11.50;99.90;;;;;;6213235;23;20008;-84
2021/05/08 03:13:22;;;;;;;0.10;0.10;;;11.50;99.90;;;;;;6212990;23;20328;-83
2021/05/08 03:15:47;;;;;;;0.10;0.10;;;11.50;99.90;;;;;;6213241;23;20451;-83
2021/05/08 03:18:13;;;;;;;0.10;0.10;;;11.50;99.90;;;;;;6213028;23;20004;-84
2021/05/08 03:20:39;;;;;;;0.10;0.10;;;11.50;99.90;;;;;;6212103;23;20446;-83
2021/05/08 03:23:04;;;;;;;0.10;0.10;;;11.50;99.90;;;;;;6213165;23;20341;-83
2021/05/08 03:25:30;;;;;;;0.10;0.10;;;11.50;99.90;;;;;;6211283;23;20005;-84
2021/05/08 03:27:56;;;;;;;0.10;0.10;;;11.50;99.90;;;;;;6213269;23;20004;-84
2021/05/08 03:30:22;;;;;;;0.10;0.10;;;11.50;99.90;;;;;;6212481;23;20050;-83
2021/05/08 03:32:47;;;;;;;0.10;0.10;;;11.40;99.90;;;;;;6213378;23;20001;-83
2021/05/08 03:35:13;;;;;;;0.10;0.10;;;11.40;99.90;;;;;;6211794;23;20083;-83
2021/05/08 03:37:39;;;;;;;0.10;0.10;;;11.40;99.90;;;;;;6213724;23;20008;-83
2021/05/08 03:40:05;;;;;;;0.10;0.10;;;11.40;99.90;;;;;;6213177;23;20043;-84
2021/05/08 03:42:31;;;;;;;0.10;0.10;;;11.40;99.90;;;;;;6186489;23;20025;-83
2021/05/08 03:44:56;;;;;;;0.10;0.10;;;11.30;99.90;;;;;;6186668;23;20447;-83
2021/05/08 03:47:22;;;;;;;0.00;0.00;;;11.40;99.90;;;;;;6212852;23;20428;-83
2021/05/08 03:49:48;;;;;;;0.10;0.10;;;11.40;99.90;;;;;;6213043;23;20012;-84
2021/05/08 03:52:14;;;;;;;0.10;0.10;;;11.40;99.90;;;;;;6212909;23;20000;-83
2021/05/08 03:54:39;;;;;;;0.10;0.10;;;11.30;99.90;;;;;;6214636;23;20424;-82
2021/05/08 03:57:05;;;;;;;0.10;0.10;;;11.30;99.90;;;;;;6215144;23;20024;-83
2021/05/08 03:59:32;;;;;;;0.10;0.10;;;11.40;99.90;;;;;;6214897;23;20076;-83
2021/05/08 04:01:57;;;;;;;0.10;0.10;;;11.50;99.90;;;;;;6214800;23;20007;-82
2021/05/08 04:04:23;;;;;;;0.10;0.10;;;11.40;99.90;;;;;;6188043;23;20087;-83
2021/05/08 04:06:49;;;;;;;0.10;0.10;;;11.40;99.90;;;;;;6213654;23;20487;-83
2021/05/08 04:09:14;;;;;;;0.10;0.10;;;11.50;99.90;;;;;;6212570;23;20012;-84
2021/05/08 04:11:40;;;;;;;0.10;0.10;;;11.40;99.90;;;;;;6188622;23;20001;-82
2021/05/08 04:14:07;;;;;;;0.00;0.00;;;11.40;99.90;;;;;;6212507;23;20127;-81
2021/05/08 04:16:33;;;;;;;0.10;0.10;;;11.40;99.90;;;;;;6214699;23;20001;-81
2021/05/08 04:19:03;;;;;;;0.10;0.10;;;11.50;99.90;;;;;;6214472;23;19992;-82
2021/05/08 04:21:29;;;;;;;0.10;0.10;;;11.60;99.90;;;;;;6214756;23;20451;-81
2021/05/08 04:23:55;;;;;;;0.10;0.10;;;11.60;99.90;;;;;;6212852;23;20008;-82
2021/05/08 04:26:21;;;;;;;0.10;0.10;;;11.60;99.90;;;;;;6214637;23;20530;-83
2021/05/08 04:28:47;;;;;;;0.10;0.10;;;11.50;99.90;;;;;;6214683;23;20499;-81
2021/05/08 04:31:12;;;;;;;0.10;0.10;;;11.50;99.90;;;;;;6213279;23;20047;-82
2021/05/08 04:33:38;;;;;;;0.10;0.10;;;11.40;99.90;;;;;;6214260;23;20031;-81
2021/05/08 04:36:04;;;;;;;0.10;0.10;;;11.40;99.90;;;;;;6214299;23;20015;-80
2021/05/08 04:38:30;;;;;;;0.10;0.10;;;11.40;99.90;;;;;;6214264;23;20054;-82
2021/05/08 04:40:56;;;;;;;0.10;0.10;;;11.50;99.90;;;;;;6214288;23;20047;-82
2021/05/08 04:43:22;;;;;;;0.08;0.08;;;11.50;99.90;;;;;;6212981;23;20008;-81
2021/05/08 04:45:48;;;;;;;0.10;0.10;;;11.50;99.90;;;;;;6214500;23;20005;-81
2021/05/08 04:48:30;;;;;;;0.10;0.10;;;11.50;99.90;;;;;;6214330;23;20324;-83
2021/05/08 04:50:55;;;;;;;0.10;0.10;;;11.50;99.90;;;;;;6214624;23;20467;-83
2021/05/08 04:53:21;;;;;;;0.10;0.10;;;11.50;99.90;;;;;;6214462;23;20240;-84
2021/05/08 04:55:48;;;;;;;0.10;0.10;;;11.60;99.90;;;;;;6214710;23;20460;-83
2021/05/08 04:58:14;;;;;;;0.10;0.10;;;11.60;99.90;;;;;;6214661;23;20000;-84
2021/05/08 05:00:40;;;;;;;0.10;0.10;;;11.70;99.90;;;;;;6214319;23;20001;-81
2021/05/08 05:03:05;;;;;;;0.10;0.10;;;11.70;99.90;;;;;;6214642;23;20548;-83
2021/05/08 05:05:31;;;;;;;0.10;0.10;;;11.80;99.90;;;;;;6213289;23;19997;-82
2021/05/08 05:07:57;;;;;;;0.10;0.10;;;11.80;99.90;;;;;;6214503;23;20000;-81
2021/05/08 05:10:23;;;;;;;0.10;0.10;;;11.80;99.90;;;;;;6213722;23;20009;-81
2021/05/08 05:12:48;;;;;;;0.10;0.10;;;11.70;99.90;;;;;;6214317;23;20054;-81
2021/05/08 05:15:19;;;;;;;0.10;0.10;;;11.80;99.90;;;;;;6214126;23;20008;-81
2021/05/08 05:17:46;;;;;;;0.10;0.10;;;11.80;99.90;;;;;;6214472;23;19996;-84
2021/05/08 05:20:12;;;;;;;0.10;0.10;;;11.80;99.90;;;;;;6212297;23;20001;-81
2021/05/08 05:22:39;;;;;;;0.10;0.10;;;11.70;99.90;;;;;;6214207;23;20497;-81
2021/05/08 05:25:06;;;;;;;0.10;0.10;;;11.70;99.90;;;;;;6213549;23;20008;-81
2021/05/08 05:27:32;;;;;;;;;;;11.60;99.90;;;;;;6213051;23;20031;-83
2021/05/08 05:29:58;;;;;;;0.10;0.10;;;11.50;99.90;;;;;;6213957;23;20320;-84
2021/05/08 05:32:24;;;;;;;0.10;0.10;;;11.50;99.90;;;;;;6213914;23;20047;-83
2021/05/08 05:34:49;;;;;;;0.10;0.10;;;11.60;99.90;;;;;;6187410;23;20013;-85
2021/05/08 05:37:15;;;;;;;0.10;0.10;;;11.60;99.90;;;;;;6212980;23;20106;-84
2021/05/08 05:39:41;;;;;;;0.10;0.10;;;11.70;99.90;;;;;;6213757;23;20432;-86
2021/05/08 05:42:07;;;;;;;0.00;0.00;;;11.70;99.90;;;;;;6187546;23;20087;-84
2021/05/08 05:44:32;;;;;;;0.10;0.10;;;11.80;99.90;;;;;;6212067;23;20083;-82
2021/05/08 05:46:58;;;;;;;0.10;0.10;;;11.90;99.90;;;;;;6214078;23;20004;-84
2021/05/08 05:49:24;;;;;;;0.10;0.10;;;12.00;99.90;;;;;;6213783;23;20141;-84
2021/05/08 05:51:49;;;;;;;0.08;0.08;;;12.00;99.90;;;;;;6213884;23;20058;-84
2021/05/08 05:54:15;;;;;;;0.10;0.10;;;12.00;99.90;;;;;;6214243;23;20008;-86
2021/05/08 05:56:41;;;;;;;0.10;0.10;;;12.10;99.90;;;;;;6214209;23;20001;-84
2021/05/08 05:59:06;;;;;;;0.10;0.10;;;12.20;99.90;;;;;;6212916;23;20047;-85
2021/05/08 06:01:32;;;;;;;0.00;0.00;;;12.20;99.90;;;;;;6213990;23;19992;-84
2021/05/08 06:03:58;;;;;;;0.00;0.00;;;12.30;99.90;;;;;;6213981;23;20031;-84
2021/05/08 06:06:23;;;;;;;0.10;0.10;;;12.30;99.90;;;;;;6214577;23;19997;-86
2021/05/08 06:08:49;;;;;;;0.10;0.10;;;12.40;99.90;;;;;;6215059;23;20036;-87
2021/05/08 06:11:15;;;;;;;0.05;0.05;;;12.50;99.90;;;;;;6214105;23;20444;-86
2021/05/08 06:13:40;;;;;;;0.10;0.10;;;12.60;98.80;;;;;;6214705;23;20005;-87
2021/05/08 06:16:06;;;;;;;0.00;0.00;;;12.70;99.00;;;;;;6213790;23;20058;-86
2021/05/08 06:18:36;;;;;;;0.10;0.10;;;12.80;99.90;;;;;;6212124;23;20005;-85
2021/05/08 06:21:02;;;;;;;0.08;0.08;;;12.90;99.90;;;;;;6212347;23;20001;-85
2021/05/08 06:23:28;;;;;;;0.10;0.10;;;13.00;98.50;;;;;;6214239;23;20202;-92
2021/05/08 06:25:54;;;;;;;0.00;0.00;;;13.10;97.00;;;;;;6214174;23;20008;-87
2021/05/08 06:28:19;;;;;;;0.10;0.10;;;13.20;96.70;;;;;;6214598;23;20000;-89
2021/05/08 06:30:45;;;;;;;0.00;0.00;;;13.20;98.80;;;;;;6214659;23;20012;-91
2021/05/08 06:33:11;;;;;;;0.03;0.03;;;13.30;97.30;;;;;;6188338;23;20005;-84
2021/05/08 06:35:38;;;;;;;0.10;0.10;;;13.40;98.80;;;;;;6187348;23;20016;-80
2021/05/08 06:38:04;;;;;;;0.10;0.10;;;13.50;97.80;;;;;;6213900;23;20644;-84
2021/05/08 06:40:29;;;;;;;0.10;0.10;;;13.60;99.90;;;;;;6213651;23;20005;-84
2021/05/08 06:42:56;;;;;;;0.10;0.10;;;13.70;99.90;;;;;;6213610;23;20004;-85
2021/05/08 06:45:21;;;;;;;0.00;0.00;;;13.90;98.90;;;;;;6213222;23;20347;-82
2021/05/08 06:47:49;;;;;;;0.10;0.10;;;14.00;98.50;;;;;;6213269;23;20001;-82
2021/05/08 06:50:15;;;;;;;0.00;0.00;;;14.10;97.00;;;;;;6212927;23;20242;-82
2021/05/08 06:52:41;;;;;;;0.00;0.00;;;14.10;96.10;;;;;;6213385;23;20000;-82
2021/05/08 06:55:07;;;;;;;0.00;0.00;;;14.20;95.50;;;;;;6213561;23;20075;-83
2021/05/08 06:57:33;;;;;;;0.00;0.00;;;14.20;95.80;;;;;;6213391;23;20001;-82
2021/05/08 06:59:59;;;;;;;0.10;0.10;;;14.20;95.90;;;;;;6211854;23;20011;-85
2021/05/08 07:02:25;;;;;;;0.00;0.00;;;14.30;94.40;;;;;;6214295;23;20008;-88
2021/05/08 07:04:51;;;;;;;0.00;0.00;;;14.40;95.00;;;;;;6211745;23;20001;-83
2021/05/08 07:07:16;;;;;;;0.00;0.00;;;14.50;92.50;;;;;;6213686;23;20446;-85
2021/05/08 07:09:42;;;;;;;0.00;0.00;;;14.60;94.40;;;;;;6213188;23;20012;-86
2021/05/08 07:12:08;;;;;;;0.10;0.10;;;14.60;95.70;;;;;;6213456;23;20127;-87
2021/05/08 07:14:34;;;;;;;0.10;0.10;;;14.60;92.40;;;;;;6213522;23;20027;-85
2021/05/08 07:17:00;;;;;;;0.10;0.10;;;14.70;96.00;;;;;;6213530;23;20001;-85
2021/05/08 07:19:25;;;;;;;0.05;0.05;;;14.70;92.10;;;;;;6213803;23;20005;-85
2021/05/08 07:21:51;;;;;;;0.00;0.00;;;14.70;92.10;;;;;;6211901;23;20001;-83
2021/05/08 07:24:17;;;;;;;0.00;0.00;;;14.70;91.70;;;;;;6213222;23;20059;-83
2021/05/08 07:26:43;;;;;;;0.10;0.10;;;14.70;95.00;;;;;;6212015;23;20000;-82
2021/05/08 07:29:08;;;;;;;0.00;0.00;;;14.80;93.40;;;;;;6187427;23;20013;-85
2021/05/08 07:31:34;;;;;;;0.00;0.00;;;14.90;92.00;;;;;;6215723;23;20087;-84
2021/05/08 07:33:59;;;;;;;0.10;0.10;;;15.00;92.30;;;;;;6214814;23;20001;-83
2021/05/08 07:36:25;;;;;;;0.00;0.00;;;15.00;95.10;;;;;;6215533;23;20084;-84
2021/05/08 07:38:51;;;;;;;0.10;0.10;;;15.10;95.00;;;;;;6215287;23;20001;-84
2021/05/08 07:41:17;;;;;;;0.00;0.00;;;15.30;94.10;;;;;;6215099;23;19996;-84
2021/05/08 07:43:43;;;;;;;0.10;0.10;;;15.30;91.90;;;;;;6215450;23;20440;-88
2021/05/08 07:46:08;;;;;;;0.00;0.00;;;15.30;91.30;;;;;;6188231;23;20012;-81
2021/05/08 07:48:34;;;;;;;0.00;0.00;;;15.30;92.80;;;;;;6214834;23;20019;-81
2021/05/08 07:51:00;;;;;;;0.10;0.10;;;15.30;91.20;;;;;;6213178;23;20011;-81
2021/05/08 07:53:26;;;;;;;0.00;0.00;;;15.30;95.20;;;;;;6214803;23;19997;-83
2021/05/08 07:55:51;;;;;;;0.00;0.00;;;15.40;92.10;;;;;;6187689;23;20000;-84
2021/05/08 07:58:17;;;;;;;0.00;0.00;;;15.40;97.10;;;;;;6214790;23;20446;-82
2021/05/08 08:00:43;;;;;;;0.00;0.00;;;15.60;95.80;;;;;;6214903;23;20079;-83
2021/05/08 08:03:08;;;;;;;0.10;0.10;;;15.60;94.70;;;;;;6213246;23;20455;-84
2021/05/08 08:05:34;;;;;;;0.05;0.05;;;15.70;96.50;;;;;;6213472;23;20009;-84
2021/05/08 08:08:00;;;;;;;0.00;0.00;;;15.80;97.20;;;;;;6214952;23;20005;-85
2021/05/08 08:10:27;;;;;;;0.00;0.00;;;15.80;91.60;;;;;;6214306;23;20011;-85
2021/05/08 08:12:53;;;;;;;0.10;0.10;;;15.90;93.40;;;;;;6214866;23;20367;-84
2021/05/08 08:15:19;;;;;;;0.00;0.00;;;15.90;94.50;;;;;;6212887;23;20015;-85
2021/05/08 08:17:46;;;;;;;0.00;0.00;;;16.00;92.20;;;;;;6213305;23;20004;-85
2021/05/08 08:20:12;;;;;;;;;;;16.00;94.00;;;;;;6215012;23;20001;-85
2021/05/08 08:22:39;;;;;;;0.10;0.10;;;15.90;93.90;;;;;;6214891;23;19904;-84
2021/05/08 08:25:07;;;;;;;0.00;0.00;;;16.00;93.70;;;;;;6214306;23;20029;-84
2021/05/08 08:27:32;;;;;;;0.00;0.00;;;16.00;88.70;;;;;;6214600;23;20016;-83
2021/05/08 08:29:58;;;;;;;0.00;0.00;;;15.90;89.30;;;;;;6214187;23;20344;-83
2021/05/08 08:32:24;;;;;;;0.00;0.00;;;15.90;92.90;;;;;;6214522;23;19997;-83
2021/05/08 08:34:50;;;;;;;0.03;0.03;;;16.00;89.90;;;;;;6213930;23;20005;-82
2021/05/08 08:37:16;;;;;;;0.10;0.10;;;16.10;91.90;;;;;;6214733;23;20324;-82
2021/05/08 08:39:42;;;;;;;0.00;0.00;;;16.10;91.90;;;;;;6214041;23;20008;-83
2021/05/08 08:42:08;;;;;;;0.10;0.10;;;16.10;89.20;;;;;;6214655;23;19996;-82
2021/05/08 08:44:37;;;;;;;0.00;0.00;;;16.30;88.00;;;;;;6214586;23;20449;-82
2021/05/08 08:47:05;;;;;;;0.00;0.00;;;16.40;90.90;;;;;;6214349;23;20309;-81
2021/05/08 08:49:33;;;;;;;0.00;0.00;;;16.40;85.70;;;;;;6214162;23;20069;-81
2021/05/08 08:51:59;;;;;;;0.00;0.00;;;16.50;91.40;;;;;;6214551;23;20008;-82
2021/05/08 08:54:25;;;;;;;0.00;0.00;;;16.50;90.50;;;;;;6214066;23;20375;-85
2021/05/08 08:56:51;;;;;;;0.00;0.00;;;16.60;88.10;;;;;;6214289;23;20025;-83
2021/05/08 09:01:50;;;;;;;0.00;0.00;;;16.50;81.40;;;;;;6216119;23;20008;-82
2021/05/08 09:04:17;;;;;;;0.00;0.00;;;16.50;80.30;;;;;;6214195;23;20083;-82
2021/05/08 09:06:45;;;;;;;0.10;0.10;;;16.50;87.70;;;;;;6214144;23;20484;-82
2021/05/08 09:09:13;;;;;;;0.10;0.10;;;16.50;90.10;;;;;;6214070;23;20016;-83
2021/05/08 09:11:48;;;;;;;0.10;0.10;;;16.60;87.90;;;;;;6214294;23;20001;-82
2021/05/08 09:14:23;;;;;;;0.10;0.10;;;16.60;91.50;;;;;;6214085;23;20427;-82
2021/05/08 09:17:08;;;;;;;0.10;0.10;;;16.70;82.10;;;;;;6214066;23;20004;-82
2021/05/08 09:19:39;;;;;;;0.00;0.00;;;16.90;90.40;;;;;;6212194;23;20047;-82
2021/05/08 09:22:29;;;;;;;0.10;0.10;;;16.90;91.00;;;;;;6214287;23;20008;-81
2021/05/08 09:25:16;;;;;;;0.10;0.10;;;17.00;85.50;;;;;;6212085;23;20502;-80
2021/05/08 09:27:49;;;;;;;0.00;0.00;;;17.10;90.70;;;;;;6214042;23;20452;-81
2021/05/08 09:30:21;;;;;;;0.00;0.00;;;17.10;88.50;;;;;;6213568;23;20012;-81
2021/05/08 09:32:48;;;;;;;0.10;0.10;;;17.10;90.90;;;;;;6213960;23;20001;-80
2021/05/08 09:35:18;;;;;;;0.10;0.10;;;17.20;92.40;;;;;;6213861;23;20021;-80
2021/05/08 09:37:44;;;;;;;0.10;0.10;;;17.30;90.30;;;;;;6214081;23;20450;-81
2021/05/08 09:40:26;;;;;;;0.00;0.00;;;17.30;91.00;;;;;;6211682;23;20004;-82
2021/05/08 09:42:54;;;;;;;0.00;0.00;;;17.30;89.60;;;;;;6214020;23;20444;-83
2021/05/08 09:45:21;;;;;;;0.10;0.10;;;17.40;85.00;;;;;;6213668;23;19997;-80
2021/05/08 09:47:48;;;;;;;0.00;0.00;;;17.40;90.30;;;;;;6213758;23;20532;-81
2021/05/08 09:50:14;;;;;;;0.10;0.10;;;17.40;92.80;;;;;;6213773;23;20016;-84
2021/05/08 09:52:55;;;;;;;0.10;0.10;;;17.50;90.00;;;;;;6187174;23;20000;-82
2021/05/08 09:55:23;;;;;;;0.00;0.00;;;17.60;92.50;;;;;;6212895;23;20087;-80
2021/05/08 09:58:06;;;;;;;0.10;0.10;;;17.60;87.10;;;;;;6213787;23;20005;-82
2021/05/08 10:00:42;;;;;;;0.10;0.10;;;17.60;93.50;;;;;;6213429;23;20323;-82
2021/05/08 10:03:10;;;;;;;0.00;0.00;;;17.70;90.50;;;;;;6213680;23;20039;-83
2021/05/08 10:05:37;;;;;;;0.10;0.10;;;17.60;90.50;;;;;;6213352;23;20004;-82
2021/05/08 10:08:04;;;;;;;0.10;0.10;;;17.70;91.50;;;;;;6213584;23;19997;-81
2021/05/08 10:10:30;;;;;;;0.10;0.10;;;17.80;92.20;;;;;;6213372;23;20012;-83
2021/05/08 10:12:56;;;;;;;0.10;0.10;;;17.90;91.00;;;;;;6211990;23;20011;-82
2021/05/08 10:15:22;;;;;;;0.00;0.00;;;17.90;88.40;;;;;;6213387;23;20001;-81
2021/05/08 10:17:49;;;;;;;0.10;0.10;;;18.00;90.70;;;;;;6213576;23;20001;-82
2021/05/08 10:20:16;;;;;;;;;;;18.00;91.10;;;;;;6213685;23;19996;-81
2021/05/08 10:22:51;;;;;;;0.00;0.00;;;18.00;85.10;;;;;;6213786;23;19906;-82
2021/05/08 10:25:18;;;;;;;0.00;0.00;;;18.00;91.20;;;;;;6213093;23;20029;-81
2021/05/08 10:27:44;;;;;;;0.00;0.00;;;18.20;93.80;;;;;;6213872;23;20005;-83
2021/05/08 10:30:15;;;;;;;0.10;0.10;;;18.20;93.70;;;;;;6212938;23;20005;-81
2021/05/08 10:32:44;;;;;;;0.10;0.10;;;18.30;92.20;;;;;;6213569;23;20575;-79
2021/05/08 10:35:11;;;;;;;0.10;0.10;;;18.40;84.10;;;;;;6212981;23;20491;-80
2021/05/08 10:37:37;;;;;;;;;;;18.30;85.60;;;;;;6214018;23;19997;-80
2021/05/08 10:40:05;;;;;;;0.10;0.10;;;18.40;90.50;;;;;;6211183;23;19903;-81
2021/05/08 10:42:43;;;;;;;0.00;0.00;;;18.40;86.60;;;;;;6208638;23;20385;-81
2021/05/08 10:45:17;;;;;;;0.10;0.10;;;18.50;92.00;;;;;;6207548;23;20008;-81
2021/05/08 10:50:30;;;;;;;0.00;0.00;;;18.60;78.30;;;;;;6207685;23;20355;-77
2021/05/08 10:52:58;;;;;;;0.10;0.10;;;18.50;77.30;;;;;;6207159;23;20040;-79
2021/05/08 10:55:24;;;;;;;0.10;0.10;;;18.60;91.30;;;;;;6204963;23;20543;-79
2021/05/08 10:58:29;;;;;;;0.00;0.00;;;18.80;90.60;;;;;;6207800;23;20218;-80
2021/05/08 11:01:37;;;;;;;0.10;0.10;;;18.80;90.30;;;;;;6206862;23;20386;-80
2021/05/08 11:04:03;;;;;;;0.00;0.00;;;18.90;88.80;;;;;;6206902;23;20015;-79
2021/05/08 11:06:29;;;;;;;0.10;0.10;;;19.10;92.20;;;;;;6206305;23;20359;-78
2021/05/08 11:08:55;;;;;;;0.10;0.10;;;19.10;90.30;;;;;;6205512;23;20091;-79
2021/05/08 11:11:24;;;;;;;0.10;0.10;;;19.20;92.00;;;;;;6207273;23;19997;-80
2021/05/08 11:13:54;;;;;;;0.10;0.10;;;19.20;78.10;;;;;;6207500;23;20059;-80
2021/05/08 11:16:25;;;;;;;0.10;0.10;;;19.20;91.70;;;;;;6207192;23;20001;-79
2021/05/08 11:18:52;;;;;;;0.08;0.08;;;19.20;85.90;;;;;;6207757;23;20051;-78
2021/05/08 11:21:18;;;;;;;0.08;0.08;;;19.00;75.00;;;;;;6207029;23;20635;-81
2021/05/08 11:24:08;;;;;;;0.10;0.10;;;19.00;79.10;;;;;;6207746;23;20008;-81
2021/05/08 11:26:42;;;;;;;0.00;0.00;;;19.10;87.00;;;;;;6208673;23;20028;-79
2021/05/08 11:29:24;;;;;;;0.00;0.00;;;19.40;92.40;;;;;;6182015;23;20343;-80
2021/05/08 11:32:08;;;;;;;0.05;0.05;;;19.50;85.40;;;;;;6207181;23;20359;-80
2021/05/08 11:34:35;;;;;;;0.00;0.00;;;19.30;77.90;;;;;;6207936;23;20008;-80
2021/05/08 11:37:09;;;;;;;0.10;0.10;;;19.30;87.10;;;;;;6184187;23;20017;-80
2021/05/08 11:39:45;;;;;;;0.10;0.10;;;19.30;86.10;;;;;;6182447;23;20000;-80
2021/05/08 11:42:17;;;;;;;0.10;0.10;;;19.20;77.40;;;;;;6201429;23;20032;-80
2021/05/08 11:45:04;;;;;;;0.10;0.10;;;19.00;75.90;;;;;;6204148;23;20005;-79
2021/05/08 11:47:30;;;;;;;0.10;0.10;;;19.00;85.70;;;;;;6205528;23;20367;-80
2021/05/08 11:50:17;;;;;;;0.10;0.10;;;18.60;76.10;;;;;;6205349;23;20017;-80
2021/05/08 11:52:49;;;;;;;0.10;0.10;;;18.30;67.00;;;;;;6179128;23;20080;-80
2021/05/08 11:55:17;;;;;;;0.00;0.00;;;17.80;72.30;;;;;;6207995;23;20008;-79
2021/05/08 11:57:57;;;;;;;0.00;0.00;;;17.90;79.30;;;;;;6205968;23;20090;-79
2021/05/08 12:00:33;;;;;;;0.10;0.10;;;17.90;79.40;;;;;;6207268;23;20092;-80
2021/05/08 12:03:14;;;;;;;0.10;0.10;;;17.90;74.00;;;;;;6208193;23;20005;-84
2021/05/08 12:05:41;;;;;;;0.10;0.10;;;19.30;76.30;;;;;;6207540;23;20168;-81
2021/05/08 12:08:08;;;;;;;0.10;0.10;;;21.40;60.50;;;;;;6206923;23;20104;-80
2021/05/08 12:10:38;;;;;;;0.10;0.10;;;22.00;58.00;;;;;;6206092;23;20062;-80
2021/05/08 12:13:04;;;;;;;0.10;0.10;;;22.10;57.70;;;;;;6207994;23;20006;-81
2021/05/08 12:15:31;;;;;;;0.10;0.10;;;21.70;55.90;;;;;;6209370;23;20004;-81
2021/05/08 12:17:58;;;;;;;0.10;0.10;;;21.90;51.60;;;;;;6210324;23;20032;-80
2021/05/08 12:20:26;;;;;;;0.10;0.10;;;22.20;51.20;;;;;;6209308;23;20005;-81
2021/05/08 12:23:04;;;;;;;0.10;0.10;;;22.50;57.60;;;;;;6211033;23;20480;-84
2021/05/08 12:25:30;;;;;;;0.20;0.20;;;22.90;57.20;;;;;;6185726;23;20063;-82
2021/05/08 12:28:13;;;;;;;0.20;0.20;;;24.50;52.00;;;;;;6191025;23;20115;-81
2021/05/08 12:30:39;;;;;;;0.20;0.20;;;26.00;45.10;;;;;;6197835;23;20363;-81
2021/05/08 12:33:14;;;;;;;0.20;0.20;;;25.90;40.70;;;;;;6202802;23;20024;-83
2021/05/08 12:35:39;;;;;;;0.20;0.20;;;26.70;39.70;;;;;;6203271;23;20367;-84
2021/05/08 12:38:13;;;;;;;0.10;0.10;;;26.90;40.80;;;;;;6202573;23;20013;-83
2021/05/08 12:40:39;;;;;;;0.10;0.10;;;26.90;37.50;;;;;;6179333;23;20441;-83
2021/05/08 12:43:05;;;;;;;0.10;0.10;;;27.60;34.70;;;;;;6204593;23;20459;-83
2021/05/08 12:45:30;;;;;;;0.10;0.10;;;26.90;36.40;;;;;;6205734;23;20024;-83
2021/05/08 12:47:56;;;;;;;0.10;0.10;;;27.40;35.50;;;;;;6204503;23;20028;-83
2021/05/08 12:50:31;;;;;;;0.10;0.10;;;27.40;33.40;;;;;;6203919;23;20019;-83
2021/05/08 12:53:09;;;;;;;0.10;0.10;;;27.10;33.80;;;;;;6206166;23;20005;-82
2021/05/08 12:55:39;;;;;;;0.10;0.10;;;26.80;34.90;;;;;;6203469;23;20293;-81